Papa John — V7TY7 — position and weather

sailwx.info

Track history (hours):
 
Tides and Currents Weather Stations Pressure Air Temp Water Temp Dewpoint Dewpoint Depression Visibility Wind Speed Wind Dir Waves Ship Positions

Papa John

Last reported at 2017-Mar-22 15:19 UTC. Time now 2017-Mar-28 02:20 UTC.
Position N 22°24' E 119°53'.

Length 190 m; draft 9.1 m.

Type: Cargo ship. MMSI: 538003908.

Date/timePositionNaut miles runAvg speedWind from/ knotsBaromVisibWave heightAir tempDewpointWater temp
2017-Mar-22 15:19N 22°24' E 119°53'912.1
2017-Mar-22 14:33N 22°33' E 119°53'1111.4
2017-Mar-22 13:33N 22°44' E 119°53'  
2017-Mar-19 04:21N 37°44' E 122°18'911.6
2017-Mar-19 03:33N 37°50' E 122°09'1211.7
2017-Mar-19 02:33N 37°57' E 121°57'1212.0
2017-Mar-19 01:33N 38°04' E 121°45'1412.3
2017-Mar-19 00:28N 38°12' E 121°31'1312.4
2017-Mar-18 23:24N 38°20' E 121°17'1112.3
2017-Mar-18 22:31N 38°27' E 121°07'2611.5
2017-Mar-18 20:15N 38°35' E 120°35'811.2
2017-Mar-18 19:33N 38°36' E 120°25'  
Track history (hours):
 
Tides and Currents Weather Stations Pressure Air Temp Water Temp Dewpoint Dewpoint Depression Visibility Wind Speed Wind Dir Waves Ship Positions

Papa John

Last reported at 2017-Mar-22 15:19 UTC. Time now 2017-Mar-28 02:20 UTC.
Position N 22°24' E 119°53'.

Length 190 m; draft 9.1 m.

Type: Cargo ship. MMSI: 538003908.

Date/timePositionNaut miles runAvg speedWind from/ knotsBaromVisibWave heightAir tempDewpointWater temp
2017-Mar-22 15:19N 22°24' E 119°53'912.1
2017-Mar-22 14:33N 22°33' E 119°53'1111.4
2017-Mar-22 13:33N 22°44' E 119°53'  
2017-Mar-19 04:21N 37°44' E 122°18'911.6
2017-Mar-19 03:33N 37°50' E 122°09'1211.7
2017-Mar-19 02:33N 37°57' E 121°57'1212.0
2017-Mar-19 01:33N 38°04' E 121°45'1412.3
2017-Mar-19 00:28N 38°12' E 121°31'1312.4
2017-Mar-18 23:24N 38°20' E 121°17'1112.3
2017-Mar-18 22:31N 38°27' E 121°07'2611.5
2017-Mar-18 20:15N 38°35' E 120°35'811.2
2017-Mar-18 19:33N 38°36' E 120°25'  

Dump ship's entire track history